Time;durP1;ratioP1;P1;durP2;ratioP2;P2;SDS_P1;SDS_P2;PMS_P1;PMS_P2;Temp;Humidity;BMP_temperature;BMP_pressure;BME280_temperature;BME280_humidity;BME280_pressure;Samples;Min_cycle;Max_cycle;Signal;HPM_P1;HPM_P2
2021/12/14 00:02:10;;;;;;;6.25;5.10;;;6.30;99.90;;;;;;1942704;72;21439;-74
2021/12/14 00:04:37;;;;;;;8.25;5.92;;;6.30;99.90;;;;;;1936899;73;21061;-74
2021/12/14 00:07:03;;;;;;;10.90;6.80;;;6.20;99.90;;;;;;1933154;73;21159;-74
2021/12/14 00:09:36;;;;;;;6.83;5.47;;;6.20;99.90;;;;;;1945750;72;21073;-73
2021/12/14 00:12:16;;;;;;;5.55;4.97;;;6.20;99.90;;;;;;1931463;72;21076;-74
2021/12/14 00:17:11;;;;;;;6.33;4.60;;;6.20;99.90;;;;;;1951218;73;21128;-75
2021/12/14 00:19:37;;;;;;;5.22;4.50;;;6.10;99.90;;;;;;1954808;72;21557;-74
2021/12/14 00:22:16;;;;;;;7.47;5.22;;;6.10;99.90;;;;;;1941745;72;21472;-74
2021/12/14 00:24:31;;;;;;;5.97;4.78;;;6.20;99.90;;;;;;1944758;72;21062;-74
2021/12/14 00:26:57;;;;;;;6.67;5.17;;;6.10;99.90;;;;;;1948993;73;21031;-73
2021/12/14 00:29:23;;;;;;;9.55;5.90;;;6.10;99.90;;;;;;1948991;72;21079;-73
2021/12/14 00:31:49;;;;;;;6.85;5.17;;;6.00;99.90;;;;;;1949248;72;21496;-74
2021/12/14 00:34:23;;;;;;;6.67;5.42;;;6.10;99.90;;;;;;1951695;72;21424;-74
2021/12/14 00:36:45;;;;;;;5.03;4.25;;;6.00;99.90;;;;;;1939669;73;21112;-74
2021/12/14 00:39:11;;;;;;;4.83;4.08;;;5.90;99.90;;;;;;1935815;73;21171;-76
2021/12/14 00:41:37;;;;;;;5.00;4.35;;;5.90;99.90;;;;;;1937648;72;21060;-75
2021/12/14 00:44:03;;;;;;;6.05;4.72;;;5.90;99.90;;;;;;1921224;73;21096;-74
2021/12/14 00:46:29;;;;;;;7.45;4.92;;;6.00;99.90;;;;;;1921319;72;21710;-75
2021/12/14 00:48:56;;;;;;;8.50;5.45;;;5.90;99.90;;;;;;1944297;73;21490;-75
2021/12/14 00:51:27;;;;;;;9.03;5.45;;;6.00;99.90;;;;;;1929659;72;21475;-74
2021/12/14 00:53:49;;;;;;;8.43;5.70;;;6.00;99.90;;;;;;1925068;72;21128;-76
2021/12/14 00:56:16;;;;;;;7.12;5.37;;;5.90;99.90;;;;;;1942271;73;21255;-75
2021/12/14 00:58:42;;;;;;;7.53;5.37;;;6.00;99.90;;;;;;1936019;72;21199;-75
2021/12/14 01:01:08;;;;;;;7.35;4.80;;;6.00;99.90;;;;;;1934833;72;21271;-74
2021/12/14 01:03:34;;;;;;;5.50;4.87;;;5.90;99.90;;;;;;1932357;72;21057;-75
2021/12/14 01:06:00;;;;;;;6.35;5.00;;;5.90;99.90;;;;;;1939680;72;21072;-75
2021/12/14 01:08:26;;;;;;;7.05;5.25;;;5.90;99.90;;;;;;1946813;72;21211;-74
2021/12/14 01:10:53;;;;;;;6.87;5.80;;;6.00;99.90;;;;;;1915736;73;21074;-74
2021/12/14 01:13:22;;;;;;;9.18;5.47;;;6.00;99.90;;;;;;1922239;72;21087;-75
2021/12/14 01:16:01;;;;;;;7.15;6.33;;;5.90;99.90;;;;;;1937456;73;21563;-74
2021/12/14 01:18:34;;;;;;;8.93;6.33;;;5.80;99.90;;;;;;1941157;72;21066;-75
2021/12/14 01:21:00;;;;;;;10.72;6.47;;;5.80;99.90;;;;;;1939284;72;21546;-74
2021/12/14 01:23:30;;;;;;;11.25;7.05;;;5.80;99.90;;;;;;1929041;72;21120;-73
2021/12/14 01:25:53;;;;;;;7.37;6.28;;;5.80;99.90;;;;;;1936710;73;21108;-75
2021/12/14 01:28:19;;;;;;;10.75;6.70;;;5.90;99.90;;;;;;1940078;72;21088;-75
2021/12/14 01:30:56;;;;;;;10.60;7.37;;;5.80;99.90;;;;;;1948646;72;21462;-74
2021/12/14 01:33:15;;;;;;;8.13;7.15;;;5.70;99.90;;;;;;1942676;73;21113;-73
2021/12/14 01:35:41;;;;;;;9.38;7.08;;;5.80;99.90;;;;;;1937319;73;21216;-75
2021/12/14 01:40:53;;;;;;;8.65;6.65;;;5.80;99.90;;;;;;1934820;72;21099;-74
2021/12/14 01:43:20;;;;;;;12.28;7.25;;;5.80;99.90;;;;;;1945944;72;21092;-75
2021/12/14 01:45:46;;;;;;;10.82;7.70;;;5.80;99.90;;;;;;1945414;72;21080;-75
2021/12/14 01:48:12;;;;;;;12.20;7.60;;;5.70;99.90;;;;;;1925615;73;21500;-75
2021/12/14 01:50:38;;;;;;;10.75;8.18;;;5.70;99.90;;;;;;1932412;72;21492;-76
2021/12/14 01:53:04;;;;;;;9.20;7.17;;;5.70;99.90;;;;;;1926200;73;21500;-75
2021/12/14 01:55:30;;;;;;;8.75;6.58;;;5.70;99.90;;;;;;1933265;73;21479;-75
2021/12/14 01:57:56;;;;;;;9.78;7.35;;;5.60;99.90;;;;;;1930412;73;21509;-75
2021/12/14 02:00:22;;;;;;;12.30;8.30;;;5.60;99.90;;;;;;1940356;72;21071;-75
2021/12/14 02:02:49;;;;;;;11.73;8.48;;;5.60;99.90;;;;;;1951667;72;21146;-74
2021/12/14 02:05:15;;;;;;;13.98;7.60;;;5.70;99.90;;;;;;1937644;71;21072;-75
2021/12/14 02:07:41;;;;;;;9.70;7.08;;;5.70;99.90;;;;;;1925439;73;21057;-75
2021/12/14 02:10:08;;;;;;;13.68;7.75;;;5.70;99.90;;;;;;1931512;73;21072;-75
2021/12/14 02:12:34;;;;;;;12.13;8.20;;;5.70;99.90;;;;;;1936854;72;21086;-75
2021/12/14 02:15:00;;;;;;;8.45;6.95;;;5.70;99.90;;;;;;1943091;72;21070;-75
2021/12/14 02:17:26;;;;;;;15.78;7.45;;;5.70;99.90;;;;;;1954682;72;21442;-75
2021/12/14 02:19:52;;;;;;;13.65;8.20;;;5.70;99.90;;;;;;1951214;72;21437;-76
2021/12/14 02:22:18;;;;;;;10.32;7.83;;;5.70;99.90;;;;;;1944907;72;21578;-75
2021/12/14 02:24:44;;;;;;;11.73;7.67;;;5.70;99.90;;;;;;1929829;73;21505;-75
2021/12/14 02:27:10;;;;;;;10.70;7.40;;;5.70;99.90;;;;;;1936284;72;21068;-74
2021/12/14 02:29:37;;;;;;;9.05;7.30;;;5.70;99.90;;;;;;1953499;72;21141;-74
2021/12/14 02:32:03;;;;;;;13.08;8.23;;;5.60;99.90;;;;;;1928650;72;21104;-76
2021/12/14 02:34:29;;;;;;;14.63;9.70;;;5.60;99.90;;;;;;1926285;72;21145;-75
2021/12/14 02:36:57;;;;;;;15.35;9.60;;;5.50;99.90;;;;;;1948687;73;21142;-75
2021/12/14 02:39:35;;;;;;;19.25;9.25;;;5.60;99.90;;;;;;1939719;73;21535;-73
2021/12/14 02:41:50;;;;;;;13.98;8.68;;;5.50;99.90;;;;;;1940439;72;21088;-74
2021/12/14 02:44:17;;;;;;;13.50;9.43;;;5.50;99.90;;;;;;1931153;71;21208;-75
2021/12/14 02:46:43;;;;;;;13.35;9.15;;;5.50;99.90;;;;;;1937430;72;21432;-74
2021/12/14 02:49:09;;;;;;;16.57;9.43;;;5.50;99.90;;;;;;1939826;72;21512;-74
2021/12/14 02:51:35;;;;;;;13.85;8.40;;;5.50;99.90;;;;;;1923760;73;21464;-75
2021/12/14 02:54:01;;;;;;;18.27;9.38;;;5.50;99.90;;;;;;1927592;72;21558;-75
2021/12/14 02:56:27;;;;;;;13.13;8.50;;;5.50;99.90;;;;;;1939301;72;21032;-74
2021/12/14 02:58:53;;;;;;;12.60;9.03;;;5.50;99.90;;;;;;1930866;73;21166;-75
2021/12/14 03:01:19;;;;;;;14.73;9.00;;;5.50;99.90;;;;;;1941047;72;21145;-73
2021/12/14 03:03:46;;;;;;;12.43;8.30;;;5.40;99.90;;;;;;1931034;73;21074;-74
2021/12/14 03:06:18;;;;;;;14.38;7.78;;;5.40;99.90;;;;;;1949228;72;21213;-75
2021/12/14 03:08:46;;;;;;;12.58;8.43;;;5.40;99.90;;;;;;1926635;73;21453;-74
2021/12/14 03:11:10;;;;;;;9.35;7.10;;;5.40;99.90;;;;;;1943030;72;21147;-74
2021/12/14 03:13:37;;;;;;;11.73;7.78;;;5.40;99.90;;;;;;1949271;73;21149;-75
2021/12/14 03:16:03;;;;;;;11.25;8.15;;;5.30;99.90;;;;;;1940070;72;21070;-74
2021/12/14 03:18:29;;;;;;;12.37;8.65;;;5.30;99.90;;;;;;1934005;72;21066;-74
2021/12/14 03:20:55;;;;;;;13.25;9.45;;;5.30;99.90;;;;;;1941578;72;21059;-74
2021/12/14 03:23:27;;;;;;;19.23;9.35;;;5.30;99.90;;;;;;1937090;73;21140;-73
2021/12/14 03:25:53;;;;;;;15.05;9.83;;;5.30;99.90;;;;;;1939342;72;21484;-73
2021/12/14 03:28:19;;;;;;;20.10;10.08;;;5.30;99.90;;;;;;1926601;73;21465;-74
2021/12/14 03:30:45;;;;;;;14.23;9.03;;;5.20;99.90;;;;;;1938715;73;21142;-75
2021/12/14 03:33:17;;;;;;;17.62;9.65;;;5.20;99.90;;;;;;1951190;72;21157;-75
2021/12/14 03:35:43;;;;;;;13.43;9.28;;;5.20;99.90;;;;;;1940432;72;21186;-73
2021/12/14 03:38:09;;;;;;;15.68;9.88;;;5.20;99.90;;;;;;1943552;71;21066;-73
2021/12/14 03:40:35;;;;;;;18.17;10.25;;;5.20;99.90;;;;;;1943009;73;21079;-73
2021/12/14 03:43:02;;;;;;;21.07;10.98;;;5.20;99.90;;;;;;1940276;73;21076;-73
2021/12/14 03:45:28;;;;;;;18.82;11.28;;;5.20;99.90;;;;;;1941151;71;21162;-73
2021/12/14 03:47:54;;;;;;;17.67;11.12;;;5.10;99.90;;;;;;1951624;73;21039;-74
2021/12/14 03:50:20;;;;;;;20.52;10.58;;;5.10;99.90;;;;;;1949649;72;21082;-73
2021/12/14 03:52:46;;;;;;;18.00;12.03;;;5.10;99.90;;;;;;1928634;73;21144;-74
2021/12/14 03:55:12;;;;;;;17.90;11.03;;;5.10;99.90;;;;;;1932748;73;21441;-74
2021/12/14 03:57:38;;;;;;;18.27;11.30;;;5.10;99.90;;;;;;1932741;72;21459;-73
2021/12/14 04:00:04;;;;;;;13.72;9.85;;;5.10;99.90;;;;;;1928413;73;21557;-74
2021/12/14 04:02:31;;;;;;;18.40;11.22;;;5.10;99.90;;;;;;1934923;73;21851;-74
2021/12/14 04:05:03;;;;;;;26.42;11.08;;;5.10;99.90;;;;;;1929382;72;21184;-74
2021/12/14 04:07:25;;;;;;;18.40;10.35;;;5.10;99.90;;;;;;1933878;73;21078;-74
2021/12/14 04:09:51;;;;;;;20.25;11.90;;;5.00;99.90;;;;;;1933963;73;21075;-74
2021/12/14 04:12:17;;;;;;;20.60;10.93;;;5.00;99.90;;;;;;1947901;73;21150;-74
2021/12/14 04:14:43;;;;;;;15.03;9.25;;;5.00;99.90;;;;;;1945001;72;21160;-76
2021/12/14 04:17:09;;;;;;;16.70;9.10;;;5.00;99.90;;;;;;1933525;73;21142;-74
2021/12/14 04:19:36;;;;;;;21.95;10.28;;;5.00;99.90;;;;;;1951582;72;21461;-74
2021/12/14 04:22:02;;;;;;;16.62;9.65;;;4.90;99.90;;;;;;1922651;73;21157;-75
2021/12/14 04:24:28;;;;;;;23.07;9.75;;;4.90;99.90;;;;;;1932516;71;21165;-74
2021/12/14 04:26:55;;;;;;;17.82;9.18;;;4.90;99.90;;;;;;1956955;72;21136;-74
2021/12/14 04:29:21;;;;;;;19.12;9.68;;;4.80;99.90;;;;;;1957486;73;21246;-74
2021/12/14 04:31:47;;;;;;;13.62;8.23;;;4.80;99.90;;;;;;1932706;72;21079;-74
2021/12/14 04:34:14;;;;;;;14.33;8.35;;;4.80;99.90;;;;;;1930944;72;21083;-74
2021/12/14 04:36:43;;;;;;;15.30;8.35;;;4.80;99.90;;;;;;1946795;72;21037;-74
2021/12/14 04:52:51;;;;;;;18.00;8.55;;;4.70;99.90;;;;;;1929205;73;21069;-75
2021/12/14 04:55:17;;;;;;;14.03;7.30;;;4.60;99.90;;;;;;1944853;72;21079;-74
2021/12/14 04:57:43;;;;;;;14.18;7.47;;;4.60;99.90;;;;;;1939619;73;21158;-75
2021/12/14 05:00:09;;;;;;;15.32;7.33;;;4.60;99.90;;;;;;1945473;72;21431;-74
2021/12/14 05:02:35;;;;;;;16.97;7.62;;;4.50;99.90;;;;;;1939111;72;21474;-75
2021/12/14 05:05:01;;;;;;;13.78;6.97;;;4.50;99.90;;;;;;1947976;72;21610;-75
2021/12/14 05:09:19;;;;;;;14.70;7.55;;;4.50;99.90;;;;;;1937268;72;21547;-75
2021/12/14 05:09:55;;;;;;;11.35;6.80;;;4.50;99.90;;;;;;1949095;71;21059;-75
2021/12/14 05:12:21;;;;;;;13.30;7.08;;;4.60;99.90;;;;;;1935978;72;21132;-76
2021/12/14 05:14:48;;;;;;;11.22;5.87;;;4.60;99.90;;;;;;1955907;72;21060;-75
2021/12/14 05:17:14;;;;;;;13.35;6.75;;;4.50;99.90;;;;;;1944491;72;21471;-74
2021/12/14 05:19:40;;;;;;;12.07;6.53;;;4.50;99.90;;;;;;1933601;73;21613;-74
2021/12/14 05:22:06;;;;;;;19.05;7.25;;;4.40;99.90;;;;;;1932764;73;21440;-74
2021/12/14 05:24:32;;;;;;;11.75;7.05;;;4.40;99.90;;;;;;1945575;72;21486;-74
2021/12/14 05:26:58;;;;;;;12.63;7.08;;;4.30;99.90;;;;;;1957602;72;21463;-74
2021/12/14 05:29:25;;;;;;;15.45;7.58;;;4.30;99.90;;;;;;1944481;72;21083;-75
2021/12/14 05:31:51;;;;;;;13.78;6.95;;;4.40;99.90;;;;;;1946567;73;21196;-74
2021/12/14 05:34:17;;;;;;;14.45;7.00;;;4.40;99.90;;;;;;1949140;72;21181;-74
2021/12/14 05:36:43;;;;;;;9.63;6.28;;;4.40;99.90;;;;;;1942980;72;21149;-74
2021/12/14 05:39:36;;;;;;;13.22;6.47;;;4.30;99.90;;;;;;1949467;72;21068;-75
2021/12/14 05:44:14;;;;;;;14.23;7.53;;;4.30;99.90;;;;;;1935457;72;21144;-75
2021/12/14 05:46:40;;;;;;;9.53;6.30;;;4.40;99.90;;;;;;1939176;72;21138;-74
2021/12/14 05:49:06;;;;;;;12.73;6.72;;;4.40;99.90;;;;;;1947257;72;21133;-75
2021/12/14 05:51:32;;;;;;;15.18;6.67;;;4.40;99.90;;;;;;1935215;72;21482;-74
2021/12/14 05:53:59;;;;;;;11.43;6.60;;;4.50;99.90;;;;;;1946950;72;21610;-74
2021/12/14 05:56:25;;;;;;;8.33;6.28;;;4.40;99.90;;;;;;1952619;72;21558;-74
2021/12/14 05:58:51;;;;;;;16.87;6.90;;;4.50;99.90;;;;;;1954164;71;21275;-74
2021/12/14 06:01:17;;;;;;;17.15;7.33;;;4.50;99.90;;;;;;1942416;71;21074;-74
2021/12/14 06:03:45;;;;;;;27.10;7.92;;;4.50;99.90;;;;;;1931101;72;21395;-74
2021/12/14 06:06:11;;;;;;;11.33;6.60;;;4.60;99.90;;;;;;1941194;73;21164;-74
2021/12/14 06:08:37;;;;;;;15.98;7.35;;;4.60;99.90;;;;;;1934763;72;21171;-74
2021/12/14 06:11:03;;;;;;;14.55;7.80;;;4.60;99.90;;;;;;1954132;73;21114;-74
2021/12/14 06:13:30;;;;;;;11.95;6.95;;;4.50;99.90;;;;;;1947730;72;21149;-75
2021/12/14 06:15:56;;;;;;;12.88;7.92;;;4.50;99.90;;;;;;1934830;73;21145;-75
2021/12/14 06:18:22;;;;;;;14.07;8.53;;;4.50;99.90;;;;;;1926939;73;21072;-74
2021/12/14 06:20:48;;;;;;;12.15;6.97;;;4.40;99.90;;;;;;1925063;72;21153;-75
2021/12/14 06:23:14;;;;;;;12.35;6.97;;;4.30;99.90;;;;;;1934461;72;21162;-75
2021/12/14 06:25:40;;;;;;;10.55;7.33;;;4.30;99.90;;;;;;1944013;73;21190;-74
2021/12/14 06:28:06;;;;;;;14.15;8.40;;;4.30;99.90;;;;;;1946971;72;21393;-76
2021/12/14 06:30:32;;;;;;;17.45;7.85;;;4.40;99.90;;;;;;1925940;73;21217;-75
2021/12/14 06:32:59;;;;;;;13.90;7.25;;;4.40;99.90;;;;;;1942966;73;21145;-82
2021/12/14 06:35:27;;;;;;;12.55;7.08;;;4.40;99.90;;;;;;1936921;72;21102;-83
2021/12/14 06:38:39;;;;;;;13.10;8.13;;;4.40;99.90;;;;;;1932628;72;21500;-78
2021/12/14 06:40:22;;;;;;;11.65;7.78;;;4.30;99.90;;;;;;1932100;72;21039;-80
2021/12/14 06:42:48;;;;;;;13.62;7.78;;;4.40;99.90;;;;;;1941352;73;21066;-80
2021/12/14 06:45:16;;;;;;;14.58;8.25;;;4.30;99.90;;;;;;1929804;73;21157;-81
2021/12/14 06:47:42;;;;;;;18.20;8.28;;;4.20;99.90;;;;;;1931454;73;21218;-81
2021/12/14 06:50:08;;;;;;;12.82;8.03;;;4.20;99.90;;;;;;1928460;72;21080;-82
2021/12/14 06:52:35;;;;;;;19.02;7.55;;;4.20;99.90;;;;;;1939702;72;21144;-82
2021/12/14 06:55:01;;;;;;;16.52;8.70;;;4.30;99.90;;;;;;1945990;71;21045;-86
2021/12/14 06:57:27;;;;;;;13.62;8.13;;;4.20;99.90;;;;;;1930189;73;21528;-78
2021/12/14 06:59:53;;;;;;;13.38;8.15;;;4.20;99.90;;;;;;1935179;72;21074;-83
2021/12/14 07:02:19;;;;;;;16.02;8.95;;;4.10;99.90;;;;;;1948727;72;21491;-81
2021/12/14 07:04:48;;;;;;;21.17;9.38;;;4.10;99.90;;;;;;1934613;72;21502;-80
2021/12/14 07:07:14;;;;;;;17.45;9.65;;;4.10;99.90;;;;;;1943243;72;21190;-82
2021/12/14 07:09:40;;;;;;;15.00;8.68;;;4.00;99.90;;;;;;1932037;72;21129;-81
2021/12/14 07:12:06;;;;;;;21.48;9.48;;;4.10;99.90;;;;;;1932723;73;21101;-81
2021/12/14 07:14:32;;;;;;;17.82;10.05;;;4.10;99.90;;;;;;1932426;72;21080;-81
2021/12/14 07:16:58;;;;;;;19.92;9.63;;;4.00;99.90;;;;;;1936465;73;21084;-83
2021/12/14 07:19:24;;;;;;;18.70;9.93;;;4.00;99.90;;;;;;1932170;73;21075;-84
2021/12/14 07:21:50;;;;;;;15.43;9.10;;;3.90;99.90;;;;;;1928050;73;21162;-80
2021/12/14 07:24:17;;;;;;;15.55;10.00;;;4.00;99.90;;;;;;1951465;72;21192;-80
2021/12/14 07:26:43;;;;;;;16.35;9.63;;;4.00;99.90;;;;;;1937916;72;21482;-85
2021/12/14 07:29:09;;;;;;;13.28;8.25;;;3.90;99.90;;;;;;1948308;72;21613;-82
2021/12/14 07:31:35;;;;;;;18.48;8.75;;;3.90;99.90;;;;;;1932036;72;21526;-80
2021/12/14 07:34:01;;;;;;;16.57;7.97;;;3.90;99.90;;;;;;1940452;73;21138;-81
2021/12/14 07:36:27;;;;;;;17.20;8.08;;;3.90;99.90;;;;;;1938286;73;21153;-83
2021/12/14 07:38:55;;;;;;;11.48;7.22;;;3.90;99.90;;;;;;1949129;72;21080;-82
2021/12/14 07:41:21;;;;;;;9.13;6.87;;;3.90;99.90;;;;;;1934678;73;21145;-82
2021/12/14 07:43:47;;;;;;;9.23;5.78;;;3.90;99.90;;;;;;1919554;73;21167;-83
2021/12/14 07:46:13;;;;;;;12.33;6.62;;;3.90;99.90;;;;;;1927865;72;21186;-83
2021/12/14 07:48:39;;;;;;;10.82;6.80;;;4.00;99.90;;;;;;1941892;72;21162;-81
2021/12/14 07:51:06;;;;;;;9.15;6.22;;;4.00;99.90;;;;;;1944957;72;21144;-82
2021/12/14 07:53:32;;;;;;;13.70;6.20;;;4.00;99.90;;;;;;1943426;72;21096;-80
2021/12/14 07:55:58;;;;;;;8.20;6.37;;;4.00;99.90;;;;;;1934474;72;21446;-82
2021/12/14 07:58:24;;;;;;;9.78;6.03;;;4.00;99.90;;;;;;1944783;72;21460;-81
2021/12/14 08:00:50;;;;;;;6.85;5.65;;;3.90;99.90;;;;;;1925344;72;21148;-82
2021/12/14 08:03:17;;;;;;;8.18;4.85;;;4.00;99.90;;;;;;1916075;73;21083;-84
2021/12/14 08:05:43;;;;;;;7.28;5.37;;;4.00;99.90;;;;;;1932404;72;21064;-84
2021/12/14 08:08:16;;;;;;;8.33;6.20;;;4.00;99.90;;;;;;1940604;72;21043;-84
2021/12/14 08:10:41;;;;;;;;;;;4.00;99.90;;;;;;1933531;72;21056;-83
2021/12/14 08:13:08;;;;;;;10.23;6.97;;;4.10;99.90;;;;;;1940272;72;20142;-81
2021/12/14 08:15:34;;;;;;;8.40;6.12;;;4.10;99.90;;;;;;1918013;72;21164;-83
2021/12/14 08:18:00;;;;;;;13.80;6.17;;;4.10;99.90;;;;;;1900243;72;21123;-81
2021/12/14 08:20:26;;;;;;;8.85;6.12;;;4.10;99.90;;;;;;1942965;73;21078;-83
2021/12/14 08:22:53;;;;;;;7.08;5.80;;;4.10;99.90;;;;;;1943928;73;21537;-82
2021/12/14 08:25:19;;;;;;;6.25;5.10;;;4.20;99.90;;;;;;1943848;72;21068;-82
2021/12/14 08:27:45;;;;;;;5.83;5.08;;;4.10;99.90;;;;;;1937880;72;21059;-82
2021/12/14 08:30:11;;;;;;;7.67;5.90;;;4.10;99.90;;;;;;1932542;73;21080;-82
2021/12/14 08:32:37;;;;;;;8.88;5.42;;;4.10;99.90;;;;;;1946997;72;21252;-82
2021/12/14 08:35:03;;;;;;;11.48;5.28;;;4.00;99.90;;;;;;1937265;72;21212;-82
2021/12/14 08:37:29;;;;;;;7.72;5.85;;;3.90;99.90;;;;;;1934381;73;21074;-82
2021/12/14 08:39:58;;;;;;;7.97;6.22;;;3.90;99.90;;;;;;1940593;72;21071;-83
2021/12/14 08:42:29;;;;;;;13.53;6.25;;;4.10;99.90;;;;;;1950955;72;21092;-83
2021/12/14 08:44:53;;;;;;;6.87;5.35;;;4.20;99.90;;;;;;1936384;72;21070;-82
2021/12/14 08:47:19;;;;;;;7.30;5.30;;;4.30;99.90;;;;;;1945780;71;21537;-83
2021/12/14 08:49:46;;;;;;;8.60;5.72;;;4.60;99.90;;;;;;1947376;72;21429;-82
2021/12/14 08:52:13;;;;;;;11.45;6.37;;;4.60;99.90;;;;;;1946043;72;21211;-83
2021/12/14 08:54:41;;;;;;;9.48;5.85;;;4.70;99.90;;;;;;1940893;72;21045;-83
2021/12/14 08:57:08;;;;;;;7.53;5.12;;;4.70;99.90;;;;;;1947603;71;21055;-84
2021/12/14 08:59:34;;;;;;;6.62;5.03;;;4.80;99.90;;;;;;1944716;72;21460;-84
2021/12/14 09:02:02;;;;;;;7.83;5.53;;;4.60;99.90;;;;;;1934983;72;21202;-84
2021/12/14 09:04:31;;;;;;;7.62;5.12;;;4.60;99.90;;;;;;1935116;73;21063;-85
2021/12/14 09:06:58;;;;;;;9.55;5.55;;;4.60;99.90;;;;;;1955751;72;21150;-82
2021/12/14 09:09:24;;;;;;;6.83;5.83;;;4.60;99.90;;;;;;1938716;72;21130;-82
2021/12/14 09:11:50;;;;;;;11.53;5.70;;;4.60;99.90;;;;;;1902933;73;21040;-84
2021/12/14 09:14:17;;;;;;;10.08;6.05;;;4.60;99.90;;;;;;1942480;72;21558;-83
2021/12/14 09:16:43;;;;;;;7.00;5.05;;;4.70;99.90;;;;;;1930354;73;21076;-84
2021/12/14 09:19:09;;;;;;;8.98;5.75;;;4.70;99.90;;;;;;1944467;72;22562;-84
2021/12/14 09:21:35;;;;;;;15.10;6.55;;;4.80;99.90;;;;;;1950889;73;21194;-82
2021/12/14 09:24:01;;;;;;;13.10;5.60;;;4.80;99.90;;;;;;1946052;71;21076;-81
2021/12/14 09:26:28;;;;;;;8.88;5.90;;;4.90;99.90;;;;;;1936825;73;21174;-83
2021/12/14 09:28:54;;;;;;;8.70;5.28;;;5.10;99.90;;;;;;1936027;73;21166;-80
2021/12/14 09:31:27;;;;;;;9.35;5.47;;;5.20;99.90;;;;;;1949937;72;21066;-81
2021/12/14 09:33:51;;;;;;;6.97;5.47;;;5.20;99.90;;;;;;1917893;72;21111;-83
2021/12/14 09:36:17;;;;;;;9.13;5.70;;;5.30;99.90;;;;;;1934092;72;21505;-83
2021/12/14 09:38:43;;;;;;;7.15;5.15;;;5.50;99.90;;;;;;1939334;72;21101;-81
2021/12/14 09:41:09;;;;;;;6.62;5.70;;;5.80;99.90;;;;;;1944148;72;21049;-81
2021/12/14 09:43:35;;;;;;;7.15;5.00;;;6.20;99.90;;;;;;1947727;72;21080;-81
2021/12/14 09:46:01;;;;;;;7.42;5.17;;;6.40;99.90;;;;;;1945733;72;21067;-81
2021/12/14 09:48:27;;;;;;;9.18;4.92;;;6.40;99.90;;;;;;1937978;73;21087;-81
2021/12/14 09:50:54;;;;;;;7.60;4.60;;;6.30;99.90;;;;;;1938939;72;21088;-81
2021/12/14 09:53:20;;;;;;;9.40;5.25;;;6.20;99.90;;;;;;1954645;72;21182;-80
2021/12/14 09:55:46;;;;;;;6.37;5.30;;;6.30;99.90;;;;;;1940081;73;21267;-80
2021/12/14 09:58:12;;;;;;;6.10;5.35;;;6.40;99.90;;;;;;1926027;73;21173;-79
2021/12/14 10:00:38;;;;;;;8.43;5.47;;;6.90;99.90;;;;;;1945013;73;21546;-80
2021/12/14 10:03:04;;;;;;;7.05;5.28;;;6.80;99.90;;;;;;1940694;72;21455;-80
2021/12/14 10:05:30;;;;;;;5.22;4.70;;;6.70;99.90;;;;;;1928705;73;21436;-81
2021/12/14 10:07:56;;;;;;;6.45;4.85;;;6.20;99.90;;;;;;1929304;72;21157;-80
2021/12/14 10:10:22;;;;;;;10.45;5.22;;;6.10;99.90;;;;;;1934812;72;21348;-81
2021/12/14 10:12:51;;;;;;;6.40;5.28;;;6.20;99.90;;;;;;1931588;71;21180;-79
2021/12/14 10:15:17;;;;;;;7.33;4.72;;;6.40;99.90;;;;;;1933313;72;21146;-82
2021/12/14 10:17:44;;;;;;;8.68;4.85;;;6.40;99.90;;;;;;1934988;72;21164;-80
2021/12/14 10:20:10;;;;;;;6.53;5.00;;;6.30;99.90;;;;;;1943034;73;21162;-80
2021/12/14 10:22:36;;;;;;;6.35;5.12;;;6.10;99.90;;;;;;1928512;73;21064;-79
2021/12/14 10:25:02;;;;;;;8.50;5.42;;;6.10;99.90;;;;;;1943774;72;21101;-80
2021/12/14 10:27:28;;;;;;;6.55;5.10;;;6.10;99.90;;;;;;1926938;73;21190;-80
2021/12/14 10:29:55;;;;;;;9.15;4.70;;;6.10;99.90;;;;;;1941303;72;21093;-79
2021/12/14 10:32:21;;;;;;;7.33;4.83;;;6.00;99.90;;;;;;1929457;72;21491;-80
2021/12/14 10:34:47;;;;;;;8.78;4.35;;;6.00;99.90;;;;;;1924362;72;21472;-78
2021/12/14 10:37:19;;;;;;;6.85;5.22;;;6.40;99.90;;;;;;1921516;73;21409;-81
2021/12/14 10:44:46;;;;;;;8.60;4.53;;;7.00;99.90;;;;;;1839630;76;21175;-81
2021/12/14 10:47:12;;;;;;;6.95;4.33;;;6.60;99.90;;;;;;1940558;72;21035;-82
2021/12/14 10:49:38;;;;;;;6.15;4.22;;;6.70;99.90;;;;;;1943273;72;21190;-82
2021/12/14 10:52:04;;;;;;;8.78;4.28;;;6.60;99.90;;;;;;1943005;72;21136;-82
2021/12/14 10:54:30;;;;;;;6.62;4.78;;;6.70;99.90;;;;;;1925267;72;21137;-80
2021/12/14 10:56:56;;;;;;;9.60;4.65;;;6.60;99.90;;;;;;1935889;72;21088;-81
2021/12/14 10:59:22;;;;;;;5.95;4.40;;;7.00;99.90;;;;;;1916084;73;21097;-81
2021/12/14 11:01:50;;;;;;;9.93;4.87;;;7.10;99.90;;;;;;1931395;72;21077;-81
2021/12/14 11:04:16;;;;;;;5.62;4.35;;;7.40;99.90;;;;;;1901210;72;21063;-82
2021/12/14 11:06:44;;;;;;;5.83;4.45;;;7.60;99.90;;;;;;1943203;72;21055;-80
2021/12/14 11:11:38;;;;;;;4.85;4.20;;;7.70;99.90;;;;;;1943451;73;21157;-74
2021/12/14 11:14:04;;;;;;;7.17;4.60;;;7.80;99.90;;;;;;1930717;72;21076;-80
2021/12/14 11:18:08;;;;;;;4.85;4.15;;;7.90;99.90;;;;;;1928863;71;21035;-79
2021/12/14 11:19:01;;;;;;;6.97;4.58;;;7.90;99.90;;;;;;1944848;72;21077;-80
2021/12/14 11:21:28;;;;;;;8.58;4.90;;;8.00;99.90;;;;;;1961322;72;21062;-83
2021/12/14 11:23:55;;;;;;;7.78;4.70;;;7.70;99.90;;;;;;1945569;72;21408;-81
2021/12/14 11:26:21;;;;;;;5.67;3.75;;;7.50;99.90;;;;;;1936880;73;21337;-81
2021/12/14 11:28:47;;;;;;;15.72;4.40;;;7.50;99.90;;;;;;1934990;72;21125;-81
2021/12/14 11:31:13;;;;;;;7.60;4.22;;;7.70;99.90;;;;;;1941089;72;21062;-80
2021/12/14 11:33:42;;;;;;;11.00;5.45;;;7.70;99.90;;;;;;1928525;72;21141;-81
2021/12/14 11:36:07;;;;;;;7.97;4.75;;;7.60;99.90;;;;;;1928394;72;21178;-81
2021/12/14 11:38:33;;;;;;;6.17;4.87;;;7.50;99.90;;;;;;1905250;73;21157;-81
2021/12/14 11:41:00;;;;;;;8.53;5.03;;;7.40;99.90;;;;;;1934036;72;21122;-81
2021/12/14 11:43:26;;;;;;;4.87;4.37;;;7.50;99.90;;;;;;1926989;73;21151;-81
2021/12/14 11:45:52;;;;;;;6.30;5.08;;;7.60;99.90;;;;;;1933562;72;21084;-78
2021/12/14 11:48:18;;;;;;;5.30;4.30;;;7.60;99.90;;;;;;1934139;73;21058;-79
2021/12/14 11:50:44;;;;;;;5.75;4.30;;;8.00;99.90;;;;;;1935527;73;21068;-79
2021/12/14 11:53:13;;;;;;;7.22;4.30;;;8.40;99.90;;;;;;1930792;72;21145;-80
2021/12/14 11:55:38;;;;;;;5.78;4.78;;;8.70;99.90;;;;;;1944505;72;21463;-80
2021/12/14 11:58:04;;;;;;;6.37;4.58;;;8.90;99.90;;;;;;1938808;72;21068;-80
2021/12/14 12:00:30;;;;;;;5.62;4.45;;;9.20;99.90;;;;;;1942731;72;21039;-80
2021/12/14 12:02:57;;;;;;;6.97;4.47;;;9.50;99.90;;;;;;1948817;72;21076;-81
2021/12/14 12:05:23;;;;;;;10.35;4.75;;;9.70;99.90;;;;;;1933161;73;21084;-78
2021/12/14 12:10:33;;;;;;;10.70;4.90;;;9.50;99.90;;;;;;1935286;72;21088;-81
2021/12/14 12:12:59;;;;;;;9.45;4.83;;;9.40;99.90;;;;;;1935328;72;21074;-81
2021/12/14 12:15:26;;;;;;;8.75;4.72;;;9.40;99.90;;;;;;1949468;72;21076;-79
2021/12/14 12:17:52;;;;;;;6.12;4.58;;;9.60;99.90;;;;;;1944131;72;21443;-77
2021/12/14 12:20:20;;;;;;;9.28;5.15;;;9.70;99.90;;;;;;1933561;73;21444;-78
2021/12/14 12:22:46;;;;;;;7.10;4.85;;;9.80;99.90;;;;;;1933754;72;21158;-81
2021/12/14 12:25:12;;;;;;;6.50;5.00;;;9.80;99.90;;;;;;1938552;72;21282;-81
2021/12/14 12:27:40;;;;;;;8.33;4.90;;;9.50;99.90;;;;;;1951564;72;21157;-81
2021/12/14 12:30:06;;;;;;;7.78;4.37;;;9.90;99.90;;;;;;1946783;73;21133;-81
2021/12/14 12:32:32;;;;;;;8.98;4.62;;;9.80;99.90;;;;;;1940959;73;21085;-82
2021/12/14 12:34:58;;;;;;;9.58;5.40;;;10.10;99.90;;;;;;1939089;72;21224;-82
2021/12/14 12:37:24;;;;;;;7.15;4.37;;;9.40;99.90;;;;;;1944030;72;21153;-82
2021/12/14 12:39:52;;;;;;;7.53;4.80;;;9.10;99.90;;;;;;1924629;72;21080;-82
2021/12/14 12:42:18;;;;;;;6.30;4.60;;;9.50;99.90;;;;;;1925874;72;21199;-83
2021/12/14 12:44:44;;;;;;;6.78;5.25;;;9.60;99.90;;;;;;1947463;72;21037;-84
2021/12/14 12:47:10;;;;;;;7.53;4.83;;;9.60;99.90;;;;;;1946492;72;21213;-83
2021/12/14 12:49:36;;;;;;;7.58;5.00;;;10.10;99.90;;;;;;1942963;72;21138;-81
2021/12/14 12:52:02;;;;;;;5.35;4.85;;;9.90;99.90;;;;;;1936044;72;21060;-83
2021/12/14 12:54:29;;;;;;;7.58;4.78;;;9.50;99.90;;;;;;1941440;73;21078;-83
2021/12/14 12:56:55;;;;;;;7.83;5.28;;;9.30;99.90;;;;;;1941976;72;21075;-82
2021/12/14 12:59:21;;;;;;;9.50;4.87;;;9.40;99.90;;;;;;1935429;73;21052;-84
2021/12/14 13:01:47;;;;;;;7.08;4.87;;;9.60;99.90;;;;;;1938869;73;21143;-82
2021/12/14 13:04:13;;;;;;;8.35;5.50;;;9.70;99.90;;;;;;1944455;72;21211;-82
2021/12/14 13:06:39;;;;;;;8.58;5.30;;;9.90;99.90;;;;;;1933414;73;21145;-84
2021/12/14 13:09:05;;;;;;;6.60;5.00;;;10.10;99.90;;;;;;1954284;73;21146;-82
2021/12/14 13:11:31;;;;;;;5.62;4.60;;;10.40;99.90;;;;;;1913168;73;21041;-83
2021/12/14 13:13:57;;;;;;;6.75;5.35;;;10.30;99.90;;;;;;1931721;72;21076;-81
2021/12/14 13:16:24;;;;;;;6.03;4.40;;;10.10;99.90;;;;;;1942356;72;21122;-82
2021/12/14 13:18:50;;;;;;;7.42;5.25;;;10.50;99.90;;;;;;1944091;71;21079;-83